sensor_id;sensor_type;location;lat;lon;timestamp;temperature;humidity
1175;DHT22;576;48.418;10.074;2022-12-13T00:01:46;18.90;61.90
1175;DHT22;576;48.418;10.074;2022-12-13T00:04:15;18.90;61.80
1175;DHT22;576;48.418;10.074;2022-12-13T00:06:43;19.00;61.90
1175;DHT22;576;48.418;10.074;2022-12-13T00:09:12;19.00;61.80
1175;DHT22;576;48.418;10.074;2022-12-13T00:11:41;18.90;62.00
1175;DHT22;576;48.418;10.074;2022-12-13T00:14:09;18.90;61.90
1175;DHT22;576;48.418;10.074;2022-12-13T00:16:42;18.90;61.50
1175;DHT22;576;48.418;10.074;2022-12-13T00:19:13;18.90;60.80
1175;DHT22;576;48.418;10.074;2022-12-13T00:21:41;18.80;60.60
1175;DHT22;576;48.418;10.074;2022-12-13T00:24:10;18.80;60.40
1175;DHT22;576;48.418;10.074;2022-12-13T00:26:38;18.80;60.20
1175;DHT22;576;48.418;10.074;2022-12-13T00:29:07;18.80;60.10
1175;DHT22;576;48.418;10.074;2022-12-13T00:31:35;18.70;60.00
1175;DHT22;576;48.418;10.074;2022-12-13T00:34:25;18.70;60.00
1175;DHT22;576;48.418;10.074;2022-12-13T00:36:53;18.70;59.80
1175;DHT22;576;48.418;10.074;2022-12-13T00:39:25;18.70;59.70
1175;DHT22;576;48.418;10.074;2022-12-13T00:41:53;18.70;59.70
1175;DHT22;576;48.418;10.074;2022-12-13T00:44:22;18.70;59.60
1175;DHT22;576;48.418;10.074;2022-12-13T00:46:50;18.60;59.60
1175;DHT22;576;48.418;10.074;2022-12-13T00:49:19;18.60;59.60
1175;DHT22;576;48.418;10.074;2022-12-13T00:51:48;18.60;59.60
1175;DHT22;576;48.418;10.074;2022-12-13T00:54:17;18.60;59.50
1175;DHT22;576;48.418;10.074;2022-12-13T00:56:45;18.60;59.50
1175;DHT22;576;48.418;10.074;2022-12-13T00:59:13;18.60;59.50
1175;DHT22;576;48.418;10.074;2022-12-13T01:01:45;18.50;59.50
1175;DHT22;576;48.418;10.074;2022-12-13T01:04:14;18.50;59.50
1175;DHT22;576;48.418;10.074;2022-12-13T01:06:44;18.50;59.40
1175;DHT22;576;48.418;10.074;2022-12-13T01:09:16;18.50;59.40
1175;DHT22;576;48.418;10.074;2022-12-13T01:11:46;18.50;59.40
1175;DHT22;576;48.418;10.074;2022-12-13T01:14:15;18.50;59.40
1175;DHT22;576;48.418;10.074;2022-12-13T01:16:44;18.50;59.20
1175;DHT22;576;48.418;10.074;2022-12-13T01:19:12;18.50;59.10
1175;DHT22;576;48.418;10.074;2022-12-13T01:21:40;18.50;58.90
1175;DHT22;576;48.418;10.074;2022-12-13T01:24:09;18.50;58.90
1175;DHT22;576;48.418;10.074;2022-12-13T01:26:39;18.50;58.90
1175;DHT22;576;48.418;10.074;2022-12-13T01:29:07;18.40;58.90
1175;DHT22;576;48.418;10.074;2022-12-13T01:31:37;18.40;58.90
1175;DHT22;576;48.418;10.074;2022-12-13T01:34:08;18.40;58.90
1175;DHT22;576;48.418;10.074;2022-12-13T01:36:37;18.40;58.90
1175;DHT22;576;48.418;10.074;2022-12-13T01:39:06;18.40;58.90
1175;DHT22;576;48.418;10.074;2022-12-13T01:41:46;18.40;58.90
1175;DHT22;576;48.418;10.074;2022-12-13T01:44:57;18.40;58.90
1175;DHT22;576;48.418;10.074;2022-12-13T01:47:29;18.30;59.00
1175;DHT22;576;48.418;10.074;2022-12-13T01:50:01;18.30;58.90
1175;DHT22;576;48.418;10.074;2022-12-13T01:52:32;18.30;58.90
1175;DHT22;576;48.418;10.074;2022-12-13T01:55:04;18.30;58.90
1175;DHT22;576;48.418;10.074;2022-12-13T01:57:36;18.30;58.90
1175;DHT22;576;48.418;10.074;2022-12-13T02:00:13;18.30;58.80
1175;DHT22;576;48.418;10.074;2022-12-13T02:02:42;18.30;58.80
1175;DHT22;576;48.418;10.074;2022-12-13T02:05:15;18.30;58.80
1175;DHT22;576;48.418;10.074;2022-12-13T02:07:46;18.30;58.70
1175;DHT22;576;48.418;10.074;2022-12-13T02:10:15;18.30;58.70
1175;DHT22;576;48.418;10.074;2022-12-13T02:12:45;18.30;58.70
1175;DHT22;576;48.418;10.074;2022-12-13T02:15:15;18.30;58.50
1175;DHT22;576;48.418;10.074;2022-12-13T02:18:05;18.20;58.60
1175;DHT22;576;48.418;10.074;2022-12-13T02:20:50;18.20;58.70
1175;DHT22;576;48.418;10.074;2022-12-13T02:26:49;18.20;58.60
1175;DHT22;576;48.418;10.074;2022-12-13T02:29:42;18.20;58.60
1175;DHT22;576;48.418;10.074;2022-12-13T02:32:27;18.20;58.50
1175;DHT22;576;48.418;10.074;2022-12-13T02:35:02;18.20;58.50
1175;DHT22;576;48.418;10.074;2022-12-13T02:37:42;18.20;58.50
1175;DHT22;576;48.418;10.074;2022-12-13T02:40:19;18.20;58.50
1175;DHT22;576;48.418;10.074;2022-12-13T02:42:55;18.20;58.30
1175;DHT22;576;48.418;10.074;2022-12-13T02:49:30;18.20;58.40
1175;DHT22;576;48.418;10.074;2022-12-13T02:51:59;18.10;58.30
1175;DHT22;576;48.418;10.074;2022-12-13T02:54:29;18.10;58.30
1175;DHT22;576;48.418;10.074;2022-12-13T02:56:58;18.10;58.20
1175;DHT22;576;48.418;10.074;2022-12-13T02:59:29;18.10;58.20
1175;DHT22;576;48.418;10.074;2022-12-13T03:02:04;18.10;58.10
1175;DHT22;576;48.418;10.074;2022-12-13T03:04:48;18.10;58.20
1175;DHT22;576;48.418;10.074;2022-12-13T03:07:45;18.10;58.20
1175;DHT22;576;48.418;10.074;2022-12-13T03:10:20;18.10;58.20
1175;DHT22;576;48.418;10.074;2022-12-13T03:12:53;18.10;58.20
1175;DHT22;576;48.418;10.074;2022-12-13T03:15:44;18.10;58.20
1175;DHT22;576;48.418;10.074;2022-12-13T03:18:17;18.10;58.20
1175;DHT22;576;48.418;10.074;2022-12-13T03:20:49;18.10;58.20
1175;DHT22;576;48.418;10.074;2022-12-13T03:23:19;18.10;58.20
1175;DHT22;576;48.418;10.074;2022-12-13T03:25:49;18.10;58.20
1175;DHT22;576;48.418;10.074;2022-12-13T03:28:18;18.10;58.10
1175;DHT22;576;48.418;10.074;2022-12-13T03:30:47;18.10;58.20
1175;DHT22;576;48.418;10.074;2022-12-13T03:33:15;18.10;58.10
1175;DHT22;576;48.418;10.074;2022-12-13T03:35:44;18.10;58.10
1175;DHT22;576;48.418;10.074;2022-12-13T03:38:15;18.10;58.10
1175;DHT22;576;48.418;10.074;2022-12-13T03:40:50;18.10;58.00
1175;DHT22;576;48.418;10.074;2022-12-13T03:43:19;18.10;58.00
1175;DHT22;576;48.418;10.074;2022-12-13T03:45:49;18.10;57.90
1175;DHT22;576;48.418;10.074;2022-12-13T03:48:18;18.10;57.80
1175;DHT22;576;48.418;10.074;2022-12-13T03:50:49;18.10;57.90
1175;DHT22;576;48.418;10.074;2022-12-13T03:53:20;18.10;57.90
1175;DHT22;576;48.418;10.074;2022-12-13T03:56:00;18.10;57.90
1175;DHT22;576;48.418;10.074;2022-12-13T03:58:29;18.10;57.80
1175;DHT22;576;48.418;10.074;2022-12-13T04:01:05;18.10;57.90
1175;DHT22;576;48.418;10.074;2022-12-13T04:03:34;18.10;57.80
1175;DHT22;576;48.418;10.074;2022-12-13T04:06:03;18.10;57.80
1175;DHT22;576;48.418;10.074;2022-12-13T04:08:33;18.00;57.80
1175;DHT22;576;48.418;10.074;2022-12-13T04:11:02;18.00;57.80
1175;DHT22;576;48.418;10.074;2022-12-13T04:13:51;18.00;57.70
1175;DHT22;576;48.418;10.074;2022-12-13T04:16:19;18.00;57.70
1175;DHT22;576;48.418;10.074;2022-12-13T04:18:47;18.00;57.80
1175;DHT22;576;48.418;10.074;2022-12-13T04:21:15;18.00;57.70
1175;DHT22;576;48.418;10.074;2022-12-13T04:23:45;18.00;57.60
1175;DHT22;576;48.418;10.074;2022-12-13T04:26:13;18.00;57.70
1175;DHT22;576;48.418;10.074;2022-12-13T04:28:42;18.00;57.60
1175;DHT22;576;48.418;10.074;2022-12-13T04:31:16;18.00;57.60
1175;DHT22;576;48.418;10.074;2022-12-13T04:33:45;18.00;57.60
1175;DHT22;576;48.418;10.074;2022-12-13T04:36:13;18.00;57.50
1175;DHT22;576;48.418;10.074;2022-12-13T04:39:00;18.00;57.60
1175;DHT22;576;48.418;10.074;2022-12-13T04:41:29;18.00;57.60
1175;DHT22;576;48.418;10.074;2022-12-13T04:44:02;18.00;57.50
1175;DHT22;576;48.418;10.074;2022-12-13T04:46:31;18.00;57.60
1175;DHT22;576;48.418;10.074;2022-12-13T04:49:00;18.00;57.60
1175;DHT22;576;48.418;10.074;2022-12-13T04:51:28;18.00;57.60
1175;DHT22;576;48.418;10.074;2022-12-13T04:53:57;18.00;57.60
1175;DHT22;576;48.418;10.074;2022-12-13T04:56:46;18.00;57.60
1175;DHT22;576;48.418;10.074;2022-12-13T04:59:14;18.00;57.60
1175;DHT22;576;48.418;10.074;2022-12-13T05:01:43;18.00;57.60
1175;DHT22;576;48.418;10.074;2022-12-13T05:04:11;18.00;57.60
1175;DHT22;576;48.418;10.074;2022-12-13T05:06:39;18.00;57.60
1175;DHT22;576;48.418;10.074;2022-12-13T05:09:07;18.00;57.60
1175;DHT22;576;48.418;10.074;2022-12-13T05:11:37;18.00;57.50
1175;DHT22;576;48.418;10.074;2022-12-13T05:14:14;18.00;57.50
1175;DHT22;576;48.418;10.074;2022-12-13T05:16:49;18.00;57.50
1175;DHT22;576;48.418;10.074;2022-12-13T05:19:19;18.00;57.50
1175;DHT22;576;48.418;10.074;2022-12-13T05:21:58;18.00;57.50
1175;DHT22;576;48.418;10.074;2022-12-13T05:24:29;18.00;57.50
1175;DHT22;576;48.418;10.074;2022-12-13T05:26:58;18.00;57.50
1175;DHT22;576;48.418;10.074;2022-12-13T05:29:28;18.00;57.40
1175;DHT22;576;48.418;10.074;2022-12-13T05:31:56;18.00;57.40
1175;DHT22;576;48.418;10.074;2022-12-13T05:34:25;18.00;57.30
1175;DHT22;576;48.418;10.074;2022-12-13T05:36:53;17.90;57.40
1175;DHT22;576;48.418;10.074;2022-12-13T05:39:21;17.90;57.40
1175;DHT22;576;48.418;10.074;2022-12-13T05:41:56;17.90;57.30
1175;DHT22;576;48.418;10.074;2022-12-13T05:44:30;17.90;57.40
1175;DHT22;576;48.418;10.074;2022-12-13T05:46:59;17.90;57.40
1175;DHT22;576;48.418;10.074;2022-12-13T05:49:28;17.90;57.30
1175;DHT22;576;48.418;10.074;2022-12-13T05:51:56;17.90;57.30
1175;DHT22;576;48.418;10.074;2022-12-13T05:54:24;17.90;57.30
1175;DHT22;576;48.418;10.074;2022-12-13T05:56:53;17.90;57.20
1175;DHT22;576;48.418;10.074;2022-12-13T05:59:21;17.90;57.10
1175;DHT22;576;48.418;10.074;2022-12-13T06:01:50;17.90;57.40
1175;DHT22;576;48.418;10.074;2022-12-13T06:04:19;17.90;57.70
1175;DHT22;576;48.418;10.074;2022-12-13T06:06:48;17.90;58.00
1175;DHT22;576;48.418;10.074;2022-12-13T06:09:17;17.90;58.10
1175;DHT22;576;48.418;10.074;2022-12-13T06:11:45;17.90;58.30
1175;DHT22;576;48.418;10.074;2022-12-13T06:14:14;17.90;58.40
1175;DHT22;576;48.418;10.074;2022-12-13T06:16:50;17.90;58.50
1175;DHT22;576;48.418;10.074;2022-12-13T06:19:20;17.90;59.20
1175;DHT22;576;48.418;10.074;2022-12-13T06:21:48;17.90;59.30
1175;DHT22;576;48.418;10.074;2022-12-13T06:24:18;18.00;59.60
1175;DHT22;576;48.418;10.074;2022-12-13T06:26:46;18.00;59.50
1175;DHT22;576;48.418;10.074;2022-12-13T06:29:17;17.90;59.20
1175;DHT22;576;48.418;10.074;2022-12-13T06:31:56;18.00;58.90
1175;DHT22;576;48.418;10.074;2022-12-13T06:34:30;18.00;58.80
1175;DHT22;576;48.418;10.074;2022-12-13T06:37:00;18.00;58.80
1175;DHT22;576;48.418;10.074;2022-12-13T06:39:29;18.00;58.50
1175;DHT22;576;48.418;10.074;2022-12-13T06:42:00;18.00;58.50
1175;DHT22;576;48.418;10.074;2022-12-13T06:44:28;18.00;58.70
1175;DHT22;576;48.418;10.074;2022-12-13T06:46:58;18.00;59.10
1175;DHT22;576;48.418;10.074;2022-12-13T06:49:39;18.00;59.40
1175;DHT22;576;48.418;10.074;2022-12-13T06:52:10;18.00;59.60
1175;DHT22;576;48.418;10.074;2022-12-13T06:54:39;18.00;59.50
1175;DHT22;576;48.418;10.074;2022-12-13T06:57:07;18.00;59.40
1175;DHT22;576;48.418;10.074;2022-12-13T06:59:35;18.00;59.00
1175;DHT22;576;48.418;10.074;2022-12-13T07:02:05;18.00;58.90
1175;DHT22;576;48.418;10.074;2022-12-13T07:04:53;18.00;58.80
1175;DHT22;576;48.418;10.074;2022-12-13T07:07:23;18.00;58.70
1175;DHT22;576;48.418;10.074;2022-12-13T07:09:52;18.00;58.60
1175;DHT22;576;48.418;10.074;2022-12-13T07:12:20;18.00;58.60
1175;DHT22;576;48.418;10.074;2022-12-13T07:14:49;18.00;58.50
1175;DHT22;576;48.418;10.074;2022-12-13T07:17:18;18.00;58.60
1175;DHT22;576;48.418;10.074;2022-12-13T07:20:02;18.00;58.50
1175;DHT22;576;48.418;10.074;2022-12-13T07:22:30;18.00;58.40
1175;DHT22;576;48.418;10.074;2022-12-13T07:25:01;18.00;58.40
1175;DHT22;576;48.418;10.074;2022-12-13T07:27:30;18.00;58.30
1175;DHT22;576;48.418;10.074;2022-12-13T07:29:59;18.00;58.20
1175;DHT22;576;48.418;10.074;2022-12-13T07:32:29;18.00;58.20
1175;DHT22;576;48.418;10.074;2022-12-13T07:34:57;18.00;58.10
1175;DHT22;576;48.418;10.074;2022-12-13T07:37:25;18.00;58.30
1175;DHT22;576;48.418;10.074;2022-12-13T07:39:57;18.00;58.20
1175;DHT22;576;48.418;10.074;2022-12-13T07:42:30;18.00;58.20
1175;DHT22;576;48.418;10.074;2022-12-13T07:44:58;18.00;58.20
1175;DHT22;576;48.418;10.074;2022-12-13T07:47:29;18.00;57.90
1175;DHT22;576;48.418;10.074;2022-12-13T07:49:58;18.00;57.90
1175;DHT22;576;48.418;10.074;2022-12-13T07:52:27;18.00;57.70
1175;DHT22;576;48.418;10.074;2022-12-13T07:54:56;18.00;58.00
1175;DHT22;576;48.418;10.074;2022-12-13T07:57:24;18.00;58.00
1175;DHT22;576;48.418;10.074;2022-12-13T07:59:52;18.00;58.30
1175;DHT22;576;48.418;10.074;2022-12-13T08:02:20;18.00;58.70
1175;DHT22;576;48.418;10.074;2022-12-13T08:04:50;18.00;58.80
1175;DHT22;576;48.418;10.074;2022-12-13T08:07:21;18.00;60.20
1175;DHT22;576;48.418;10.074;2022-12-13T08:09:49;18.10;61.10
1175;DHT22;576;48.418;10.074;2022-12-13T08:12:19;18.10;60.70
1175;DHT22;576;48.418;10.074;2022-12-13T08:14:48;18.10;60.20
1175;DHT22;576;48.418;10.074;2022-12-13T08:17:19;18.10;59.70
1175;DHT22;576;48.418;10.074;2022-12-13T08:19:49;18.10;59.30
1175;DHT22;576;48.418;10.074;2022-12-13T08:22:18;18.10;59.10
1175;DHT22;576;48.418;10.074;2022-12-13T08:24:50;18.10;58.90
1175;DHT22;576;48.418;10.074;2022-12-13T08:27:18;18.10;58.80
1175;DHT22;576;48.418;10.074;2022-12-13T08:29:47;18.10;58.70
1175;DHT22;576;48.418;10.074;2022-12-13T08:32:15;18.10;58.50
1175;DHT22;576;48.418;10.074;2022-12-13T08:34:43;18.10;58.40
1175;DHT22;576;48.418;10.074;2022-12-13T08:37:13;18.20;58.50
1175;DHT22;576;48.418;10.074;2022-12-13T08:39:42;18.20;58.40
1175;DHT22;576;48.418;10.074;2022-12-13T08:42:12;18.20;58.30
1175;DHT22;576;48.418;10.074;2022-12-13T08:44:46;18.20;58.20
1175;DHT22;576;48.418;10.074;2022-12-13T08:47:15;18.20;58.10
1175;DHT22;576;48.418;10.074;2022-12-13T08:49:52;18.20;58.30
1175;DHT22;576;48.418;10.074;2022-12-13T08:52:22;18.20;58.40
1175;DHT22;576;48.418;10.074;2022-12-13T08:54:51;18.20;58.70
1175;DHT22;576;48.418;10.074;2022-12-13T08:57:19;18.20;58.50
1175;DHT22;576;48.418;10.074;2022-12-13T08:59:47;18.20;59.00
1175;DHT22;576;48.418;10.074;2022-12-13T09:02:15;18.20;58.90
1175;DHT22;576;48.418;10.074;2022-12-13T09:04:44;18.20;58.70
1175;DHT22;576;48.418;10.074;2022-12-13T09:07:12;18.20;59.10
1175;DHT22;576;48.418;10.074;2022-12-13T09:09:42;18.20;59.80
1175;DHT22;576;48.418;10.074;2022-12-13T09:12:10;18.30;59.60
1175;DHT22;576;48.418;10.074;2022-12-13T09:14:56;18.30;59.50
1175;DHT22;576;48.418;10.074;2022-12-13T09:17:29;18.30;60.50
1175;DHT22;576;48.418;10.074;2022-12-13T09:20:05;18.30;59.60
1175;DHT22;576;48.418;10.074;2022-12-13T09:22:55;18.40;61.90
1175;DHT22;576;48.418;10.074;2022-12-13T09:25:29;18.40;61.70
1175;DHT22;576;48.418;10.074;2022-12-13T09:28:05;18.40;64.10
1175;DHT22;576;48.418;10.074;2022-12-13T09:30:34;18.50;62.00
1175;DHT22;576;48.418;10.074;2022-12-13T09:33:02;18.50;60.50
1175;DHT22;576;48.418;10.074;2022-12-13T09:35:50;18.50;61.80
1175;DHT22;576;48.418;10.074;2022-12-13T09:38:19;18.50;60.70
1175;DHT22;576;48.418;10.074;2022-12-13T09:40:51;18.50;59.90
1175;DHT22;576;48.418;10.074;2022-12-13T09:43:28;18.50;61.00
1175;DHT22;576;48.418;10.074;2022-12-13T09:46:12;18.50;62.30
1175;DHT22;576;48.418;10.074;2022-12-13T09:48:51;18.50;61.50
1175;DHT22;576;48.418;10.074;2022-12-13T09:51:29;18.50;60.90
1175;DHT22;576;48.418;10.074;2022-12-13T09:54:14;18.50;61.80
1175;DHT22;576;48.418;10.074;2022-12-13T09:56:45;18.60;62.40
1175;DHT22;576;48.418;10.074;2022-12-13T09:59:18;18.60;61.60
1175;DHT22;576;48.418;10.074;2022-12-13T10:01:48;18.70;62.60
1175;DHT22;576;48.418;10.074;2022-12-13T10:04:17;18.70;63.60
1175;DHT22;576;48.418;10.074;2022-12-13T10:06:45;18.80;64.00
1175;DHT22;576;48.418;10.074;2022-12-13T10:09:14;18.80;63.90
1175;DHT22;576;48.418;10.074;2022-12-13T10:11:51;18.90;64.50
1175;DHT22;576;48.418;10.074;2022-12-13T10:14:23;19.00;64.80
1175;DHT22;576;48.418;10.074;2022-12-13T10:16:54;19.10;65.40
1175;DHT22;576;48.418;10.074;2022-12-13T10:19:31;19.10;64.40
1175;DHT22;576;48.418;10.074;2022-12-13T10:22:02;19.20;64.30
1175;DHT22;576;48.418;10.074;2022-12-13T10:24:48;19.20;63.70
1175;DHT22;576;48.418;10.074;2022-12-13T10:27:24;19.30;63.30
1175;DHT22;576;48.418;10.074;2022-12-13T10:30:06;19.30;63.10
1175;DHT22;576;48.418;10.074;2022-12-13T10:32:42;19.40;62.70
1175;DHT22;576;48.418;10.074;2022-12-13T10:35:21;19.40;62.80
1175;DHT22;576;48.418;10.074;2022-12-13T10:37:50;19.40;62.90
1175;DHT22;576;48.418;10.074;2022-12-13T10:40:30;19.50;62.90
1175;DHT22;576;48.418;10.074;2022-12-13T10:43:10;19.50;62.80
1175;DHT22;576;48.418;10.074;2022-12-13T10:45:39;19.60;62.70
1175;DHT22;576;48.418;10.074;2022-12-13T10:48:21;19.70;62.50
1175;DHT22;576;48.418;10.074;2022-12-13T10:50:57;19.80;62.40
1175;DHT22;576;48.418;10.074;2022-12-13T10:53:30;19.80;62.30
1175;DHT22;576;48.418;10.074;2022-12-13T10:56:00;19.90;62.30
1175;DHT22;576;48.418;10.074;2022-12-13T10:58:39;19.90;61.70
1175;DHT22;576;48.418;10.074;2022-12-13T11:01:19;20.00;61.00
1175;DHT22;576;48.418;10.074;2022-12-13T11:03:57;20.00;60.50
1175;DHT22;576;48.418;10.074;2022-12-13T11:06:44;20.10;60.20
1175;DHT22;576;48.418;10.074;2022-12-13T11:09:14;20.10;59.70
1175;DHT22;576;48.418;10.074;2022-12-13T11:11:49;20.20;59.40
1175;DHT22;576;48.418;10.074;2022-12-13T11:14:30;20.30;59.00
1175;DHT22;576;48.418;10.074;2022-12-13T11:17:06;20.30;58.70
1175;DHT22;576;48.418;10.074;2022-12-13T11:19:38;20.40;58.40
1175;DHT22;576;48.418;10.074;2022-12-13T11:22:08;20.40;58.10
1175;DHT22;576;48.418;10.074;2022-12-13T11:24:39;20.50;57.90
1175;DHT22;576;48.418;10.074;2022-12-13T11:27:24;20.50;57.70
1175;DHT22;576;48.418;10.074;2022-12-13T11:30:07;20.60;57.40
1175;DHT22;576;48.418;10.074;2022-12-13T11:32:52;20.60;57.20
1175;DHT22;576;48.418;10.074;2022-12-13T11:35:28;20.60;57.10
1175;DHT22;576;48.418;10.074;2022-12-13T11:38:06;20.60;56.80
1175;DHT22;576;48.418;10.074;2022-12-13T11:40:41;20.70;56.70
1175;DHT22;576;48.418;10.074;2022-12-13T11:43:17;20.70;56.40
1175;DHT22;576;48.418;10.074;2022-12-13T11:45:55;20.70;56.30
1175;DHT22;576;48.418;10.074;2022-12-13T11:48:35;20.70;56.10
1175;DHT22;576;48.418;10.074;2022-12-13T11:51:07;20.80;56.00
1175;DHT22;576;48.418;10.074;2022-12-13T11:53:44;20.80;56.00
1175;DHT22;576;48.418;10.074;2022-12-13T11:56:18;20.80;55.90
1175;DHT22;576;48.418;10.074;2022-12-13T11:58:52;20.80;55.80
1175;DHT22;576;48.418;10.074;2022-12-13T12:01:43;20.80;55.80
1175;DHT22;576;48.418;10.074;2022-12-13T12:04:22;20.80;55.80
1175;DHT22;576;48.418;10.074;2022-12-13T12:06:57;20.80;55.90
1175;DHT22;576;48.418;10.074;2022-12-13T12:09:49;20.80;55.90
1175;DHT22;576;48.418;10.074;2022-12-13T12:12:22;20.80;55.80
1175;DHT22;576;48.418;10.074;2022-12-13T12:14:55;20.80;55.70
1175;DHT22;576;48.418;10.074;2022-12-13T12:17:42;20.70;55.60
1175;DHT22;576;48.418;10.074;2022-12-13T12:20:12;20.70;55.60
1175;DHT22;576;48.418;10.074;2022-12-13T12:22:58;20.70;55.50
1175;DHT22;576;48.418;10.074;2022-12-13T12:25:38;20.70;55.50
1175;DHT22;576;48.418;10.074;2022-12-13T12:28:20;20.80;55.50
1175;DHT22;576;48.418;10.074;2022-12-13T12:30:57;20.80;55.50
1175;DHT22;576;48.418;10.074;2022-12-13T12:33:36;20.80;55.40
1175;DHT22;576;48.418;10.074;2022-12-13T12:39:22;20.80;55.20
1175;DHT22;576;48.418;10.074;2022-12-13T12:44:58;20.80;55.10
1175;DHT22;576;48.418;10.074;2022-12-13T12:47:39;20.80;55.00
1175;DHT22;576;48.418;10.074;2022-12-13T12:50:38;20.80;55.00
1175;DHT22;576;48.418;10.074;2022-12-13T12:53:30;20.80;54.90
1175;DHT22;576;48.418;10.074;2022-12-13T12:56:18;20.80;54.90
1175;DHT22;576;48.418;10.074;2022-12-13T12:58:54;20.90;54.90
1175;DHT22;576;48.418;10.074;2022-12-13T13:01:32;20.90;54.90
1175;DHT22;576;48.418;10.074;2022-12-13T13:04:11;20.90;54.70
1175;DHT22;576;48.418;10.074;2022-12-13T13:06:54;20.90;54.70
1175;DHT22;576;48.418;10.074;2022-12-13T13:09:29;20.90;54.70
1175;DHT22;576;48.418;10.074;2022-12-13T13:11:59;20.90;54.70
1175;DHT22;576;48.418;10.074;2022-12-13T13:14:49;20.90;54.60
1175;DHT22;576;48.418;10.074;2022-12-13T13:17:45;20.90;54.60
1175;DHT22;576;48.418;10.074;2022-12-13T13:20:21;20.90;54.60
1175;DHT22;576;48.418;10.074;2022-12-13T13:22:52;20.90;54.60
1175;DHT22;576;48.418;10.074;2022-12-13T13:25:43;20.90;54.60
1175;DHT22;576;48.418;10.074;2022-12-13T13:28:32;20.90;54.50
1175;DHT22;576;48.418;10.074;2022-12-13T13:31:03;20.90;54.50
1175;DHT22;576;48.418;10.074;2022-12-13T13:33:43;20.90;54.50
1175;DHT22;576;48.418;10.074;2022-12-13T13:39:37;20.90;54.70
1175;DHT22;576;48.418;10.074;2022-12-13T13:42:16;20.90;54.70
1175;DHT22;576;48.418;10.074;2022-12-13T13:47:40;20.80;54.90
1175;DHT22;576;48.418;10.074;2022-12-13T13:50:57;20.80;54.90
1175;DHT22;576;48.418;10.074;2022-12-13T13:57:06;20.70;55.20
1175;DHT22;576;48.418;10.074;2022-12-13T14:00:19;20.70;55.40
1175;DHT22;576;48.418;10.074;2022-12-13T14:06:39;20.80;55.50
1175;DHT22;576;48.418;10.074;2022-12-13T14:12:53;20.90;56.00
1175;DHT22;576;48.418;10.074;2022-12-13T14:16:03;21.00;56.10
1175;DHT22;576;48.418;10.074;2022-12-13T14:19:22;21.10;56.30
1175;DHT22;576;48.418;10.074;2022-12-13T14:22:14;21.20;56.50
1175;DHT22;576;48.418;10.074;2022-12-13T14:24:51;21.30;56.60
1175;DHT22;576;48.418;10.074;2022-12-13T14:27:32;21.30;56.80
1175;DHT22;576;48.418;10.074;2022-12-13T14:30:04;21.40;56.90
1175;DHT22;576;48.418;10.074;2022-12-13T14:32:52;21.40;56.80
1175;DHT22;576;48.418;10.074;2022-12-13T14:35:23;21.40;56.70
1175;DHT22;576;48.418;10.074;2022-12-13T14:37:58;21.50;56.80
1175;DHT22;576;48.418;10.074;2022-12-13T14:40:29;21.50;56.90
1175;DHT22;576;48.418;10.074;2022-12-13T14:42:58;21.60;56.90
1175;DHT22;576;48.418;10.074;2022-12-13T14:45:29;21.60;57.00
1175;DHT22;576;48.418;10.074;2022-12-13T14:48:00;21.70;57.00
1175;DHT22;576;48.418;10.074;2022-12-13T14:50:33;21.70;57.00
1175;DHT22;576;48.418;10.074;2022-12-13T14:53:03;21.70;57.10
1175;DHT22;576;48.418;10.074;2022-12-13T14:55:34;21.80;57.10
1175;DHT22;576;48.418;10.074;2022-12-13T14:58:14;21.80;57.10
1175;DHT22;576;48.418;10.074;2022-12-13T15:00:45;21.80;57.20
1175;DHT22;576;48.418;10.074;2022-12-13T15:03:21;21.90;57.20
1175;DHT22;576;48.418;10.074;2022-12-13T15:05:53;21.90;57.30
1175;DHT22;576;48.418;10.074;2022-12-13T15:08:22;21.90;57.30
1175;DHT22;576;48.418;10.074;2022-12-13T15:10:53;22.00;57.40
1175;DHT22;576;48.418;10.074;2022-12-13T15:13:27;22.00;57.40
1175;DHT22;576;48.418;10.074;2022-12-13T15:16:00;22.00;57.40
1175;DHT22;576;48.418;10.074;2022-12-13T15:18:44;22.00;57.50
1175;DHT22;576;48.418;10.074;2022-12-13T15:21:22;22.00;57.50
1175;DHT22;576;48.418;10.074;2022-12-13T15:23:57;22.00;57.60
1175;DHT22;576;48.418;10.074;2022-12-13T15:26:32;22.00;57.70
1175;DHT22;576;48.418;10.074;2022-12-13T15:29:04;22.10;57.70
1175;DHT22;576;48.418;10.074;2022-12-13T15:31:38;22.10;57.80
1175;DHT22;576;48.418;10.074;2022-12-13T15:34:20;22.10;57.80
1175;DHT22;576;48.418;10.074;2022-12-13T15:36:57;22.10;57.90
1175;DHT22;576;48.418;10.074;2022-12-13T15:39:27;22.10;57.90
1175;DHT22;576;48.418;10.074;2022-12-13T15:41:57;22.10;58.00
1175;DHT22;576;48.418;10.074;2022-12-13T15:44:27;22.20;58.00
1175;DHT22;576;48.418;10.074;2022-12-13T15:47:02;22.20;58.00
1175;DHT22;576;48.418;10.074;2022-12-13T15:49:34;22.20;58.10
1175;DHT22;576;48.418;10.074;2022-12-13T15:52:20;22.20;58.10
1175;DHT22;576;48.418;10.074;2022-12-13T15:54:55;22.20;58.20
1175;DHT22;576;48.418;10.074;2022-12-13T15:57:25;22.20;58.20
1175;DHT22;576;48.418;10.074;2022-12-13T16:00:17;22.20;58.30
1175;DHT22;576;48.418;10.074;2022-12-13T16:03:01;22.20;58.30
1175;DHT22;576;48.418;10.074;2022-12-13T16:05:37;22.30;58.30
1175;DHT22;576;48.418;10.074;2022-12-13T16:08:20;22.30;58.40
1175;DHT22;576;48.418;10.074;2022-12-13T16:10:51;22.30;58.50
1175;DHT22;576;48.418;10.074;2022-12-13T16:13:23;22.30;58.50
1175;DHT22;576;48.418;10.074;2022-12-13T16:15:54;22.30;58.60
1175;DHT22;576;48.418;10.074;2022-12-13T16:18:45;22.40;58.60
1175;DHT22;576;48.418;10.074;2022-12-13T16:21:17;22.30;58.60
1175;DHT22;576;48.418;10.074;2022-12-13T16:23:47;22.40;58.70
1175;DHT22;576;48.418;10.074;2022-12-13T16:26:21;22.30;58.40
1175;DHT22;576;48.418;10.074;2022-12-13T16:28:50;22.20;57.10
1175;DHT22;576;48.418;10.074;2022-12-13T16:31:19;22.10;56.10
1175;DHT22;576;48.418;10.074;2022-12-13T16:33:49;22.00;55.70
1175;DHT22;576;48.418;10.074;2022-12-13T16:36:19;21.90;55.40
1175;DHT22;576;48.418;10.074;2022-12-13T16:38:47;21.80;55.20
1175;DHT22;576;48.418;10.074;2022-12-13T16:41:17;21.80;55.20
1175;DHT22;576;48.418;10.074;2022-12-13T16:43:51;21.70;55.10
1175;DHT22;576;48.418;10.074;2022-12-13T16:46:22;21.60;55.20
1175;DHT22;576;48.418;10.074;2022-12-13T16:49:18;21.60;55.20
1175;DHT22;576;48.418;10.074;2022-12-13T16:51:47;21.50;55.20
1175;DHT22;576;48.418;10.074;2022-12-13T16:54:17;21.50;55.20
1175;DHT22;576;48.418;10.074;2022-12-13T16:56:45;21.40;55.20
1175;DHT22;576;48.418;10.074;2022-12-13T16:59:15;21.40;55.10
1175;DHT22;576;48.418;10.074;2022-12-13T17:01:44;21.40;54.90
1175;DHT22;576;48.418;10.074;2022-12-13T17:04:14;21.30;54.80
1175;DHT22;576;48.418;10.074;2022-12-13T17:06:49;21.30;54.70
1175;DHT22;576;48.418;10.074;2022-12-13T17:09:21;21.30;54.70
1175;DHT22;576;48.418;10.074;2022-12-13T17:11:50;21.20;54.70
1175;DHT22;576;48.418;10.074;2022-12-13T17:14:18;21.20;54.70
1175;DHT22;576;48.418;10.074;2022-12-13T17:16:46;21.20;54.60